createdAt,value
2024-01-16T00:00:54.306Z,77814.38
2024-01-16T00:03:20.950Z,77844.34
2024-01-16T00:05:47.528Z,77840.34
2024-01-16T00:08:14.189Z,77816.38
2024-01-16T00:10:40.750Z,77830.34
2024-01-16T00:13:07.372Z,77832.34
2024-01-16T00:15:33.967Z,77834.34
2024-01-16T00:18:00.670Z,77836.34
2024-01-16T00:20:27.353Z,77850.34
2024-01-16T00:22:53.938Z,77852.34
2024-01-16T00:25:21.242Z,77848.34
2024-01-16T00:27:47.857Z,77860.34
2024-01-16T00:30:14.565Z,77866.34
2024-01-16T00:32:41.185Z,77860.34
2024-01-16T00:35:07.953Z,77858.34
2024-01-16T00:37:34.508Z,77846.34
2024-01-16T00:40:01.110Z,77850.34
2024-01-16T00:42:28.068Z,77862.34
2024-01-16T00:44:54.596Z,77864.34
2024-01-16T00:47:21.159Z,77870.34
2024-01-16T00:49:48.660Z,77886.34
2024-01-16T00:52:15.192Z,77882.34
2024-01-16T00:54:42.931Z,77888.34
2024-01-16T00:57:09.588Z,77882.34
2024-01-16T00:59:36.100Z,77876.34
2024-01-16T01:02:02.749Z,77878.34
2024-01-16T01:04:29.305Z,77886.34
2024-01-16T01:06:55.852Z,77890.31
2024-01-16T01:09:22.402Z,77894.31
2024-01-16T01:11:49.304Z,77900.31
2024-01-16T01:14:15.932Z,77922.31
2024-01-16T01:16:42.496Z,77926.31
2024-01-16T01:19:09.103Z,77932.31
2024-01-16T01:21:36.550Z,77942.31
2024-01-16T01:24:03.088Z,77948.31
2024-01-16T01:26:29.633Z,77940.31
2024-01-16T01:28:56.209Z,77944.31
2024-01-16T01:31:22.865Z,77948.31
2024-01-16T01:33:49.501Z,77974.28
2024-01-16T01:36:16.072Z,77976.28
2024-01-16T01:38:42.699Z,77964.31
2024-01-16T01:41:09.621Z,78012.28
2024-01-16T01:43:36.187Z,78008.28
2024-01-16T01:46:10.052Z,78030.28
2024-01-16T01:48:41.127Z,78022.28
2024-01-16T01:51:08.038Z,78052.25
2024-01-16T01:53:35.336Z,78050.25
2024-01-16T01:56:04.567Z,78064.25
2024-01-16T01:58:31.184Z,78066.25
2024-01-16T02:00:57.790Z,78078.25
2024-01-16T02:03:24.800Z,78074.25
2024-01-16T02:05:52.483Z,78090.25
2024-01-16T02:08:19.687Z,78116.25
2024-01-16T02:10:48.917Z,78112.25
2024-01-16T02:13:15.459Z,78116.25
2024-01-16T02:15:42.473Z,78126.22
2024-01-16T02:18:09.150Z,78136.22
2024-01-16T02:20:35.795Z,78136.22
2024-01-16T02:23:04.749Z,78140.22
2024-01-16T02:25:31.442Z,78148.22
2024-01-16T02:27:58.613Z,78148.22
2024-01-16T02:30:25.198Z,78144.22
2024-01-16T02:32:51.898Z,78146.22
2024-01-16T02:35:19.801Z,78144.22
2024-01-16T02:37:46.561Z,78142.22
2024-01-16T02:40:13.095Z,78138.22
2024-01-16T02:42:39.614Z,78142.22
2024-01-16T02:45:06.765Z,78130.22
2024-01-16T02:47:33.554Z,78138.22
2024-01-16T02:50:00.669Z,78136.22
2024-01-16T02:52:27.275Z,78116.25
2024-01-16T02:54:53.830Z,78122.22
2024-01-16T02:57:20.492Z,78108.25
2024-01-16T02:59:47.599Z,78122.22
2024-01-16T03:02:14.632Z,78122.22
2024-01-16T03:04:41.245Z,78136.22
2024-01-16T03:07:07.799Z,78124.22
2024-01-16T03:09:34.378Z,78142.22
2024-01-16T03:12:03.167Z,78144.22
2024-01-16T03:14:35.179Z,78172.22
2024-01-16T03:17:05.090Z,78198.22
2024-01-16T03:19:31.690Z,78176.22
2024-01-16T03:21:58.583Z,78174.22
2024-01-16T03:24:25.234Z,78184.22
2024-01-16T03:26:51.774Z,78196.22
2024-01-16T03:29:18.448Z,78204.22
2024-01-16T03:31:45.015Z,78218.19
2024-01-16T03:34:11.832Z,78210.19
2024-01-16T03:36:39.064Z,78208.19
2024-01-16T03:39:06.817Z,78216.19
2024-01-16T03:41:33.483Z,78222.19
2024-01-16T03:44:00.023Z,78216.19
2024-01-16T03:46:26.551Z,78216.19
2024-01-16T03:48:53.217Z,78212.19
2024-01-16T03:51:20.883Z,78210.19
2024-01-16T03:53:47.575Z,78202.22
2024-01-16T03:56:14.280Z,78192.22
2024-01-16T03:58:41.848Z,78200.22
2024-01-16T04:01:08.462Z,78208.19
2024-01-16T04:03:36.291Z,78204.22
2024-01-16T04:06:03.189Z,78210.19
2024-01-16T04:08:29.820Z,78216.19
2024-01-16T04:10:56.465Z,78216.19
2024-01-16T04:13:23.389Z,78218.19
2024-01-16T04:15:49.910Z,78222.19
2024-01-16T04:18:16.562Z,78208.19
2024-01-16T04:20:43.224Z,78206.22
2024-01-16T04:23:09.853Z,78218.19
2024-01-16T04:25:36.508Z,78226.19
2024-01-16T04:28:04.146Z,78212.19
2024-01-16T04:30:30.724Z,78200.22
2024-01-16T04:32:57.495Z,78198.22
2024-01-16T04:35:25.769Z,78208.19
2024-01-16T04:37:52.496Z,78230.19
2024-01-16T04:40:19.005Z,78226.19
2024-01-16T04:42:45.629Z,78234.19
2024-01-16T04:45:12.346Z,78248.19
2024-01-16T04:47:38.934Z,78266.19
2024-01-16T04:50:05.691Z,78270.19
2024-01-16T04:52:32.214Z,78284.19
2024-01-16T04:54:58.733Z,78300.19
2024-01-16T04:57:25.263Z,78302.16
2024-01-16T04:59:52.044Z,78306.16
2024-01-16T05:02:19.773Z,78298.19
2024-01-16T05:04:50.513Z,78298.19
2024-01-16T05:07:17.066Z,78310.16
2024-01-16T05:09:45.343Z,78312.16
2024-01-16T05:12:11.928Z,78312.16
2024-01-16T05:14:38.843Z,78320.16
2024-01-16T05:17:05.398Z,78310.16
2024-01-16T05:19:31.991Z,78304.16
2024-01-16T05:21:58.616Z,78308.16
2024-01-16T05:24:25.113Z,78316.16
2024-01-16T05:26:51.752Z,78328.16
2024-01-16T05:29:19.223Z,78330.16
2024-01-16T05:31:45.752Z,78344.16
2024-01-16T05:34:12.436Z,78364.16
2024-01-16T05:36:39.125Z,78370.16
2024-01-16T05:39:05.969Z,78378.16
2024-01-16T05:41:36.022Z,78364.16
2024-01-16T05:44:04.799Z,78380.16
2024-01-16T05:46:34.660Z,78382.16
2024-01-16T05:49:01.416Z,78394.13
2024-01-16T05:51:29.002Z,78406.13
2024-01-16T05:53:55.639Z,78400.13
2024-01-16T05:56:22.319Z,78418.13
2024-01-16T05:58:48.932Z,78426.13
2024-01-16T06:01:15.556Z,78438.13
2024-01-16T06:03:42.731Z,78456.13
2024-01-16T06:06:09.369Z,78462.13
2024-01-16T06:08:35.965Z,78462.13
2024-01-16T06:11:02.569Z,78442.13
2024-01-16T06:13:31.319Z,78448.13
2024-01-16T06:15:57.840Z,78436.13
2024-01-16T06:18:24.526Z,78434.13
2024-01-16T06:20:51.385Z,78418.13
2024-01-16T06:23:18.064Z,78424.13
2024-01-16T06:25:44.579Z,78400.13
2024-01-16T06:28:11.089Z,78406.13
2024-01-16T06:30:37.888Z,78424.13
2024-01-16T06:33:04.832Z,78420.13
2024-01-16T06:35:31.517Z,78426.13
2024-01-16T06:37:58.035Z,78418.13
2024-01-16T06:40:24.547Z,78422.13
2024-01-16T06:42:51.095Z,78436.13
2024-01-16T06:45:18.154Z,78444.13
2024-01-16T06:47:44.901Z,78446.13
2024-01-16T06:50:11.641Z,78450.13
2024-01-16T06:52:38.183Z,78450.13
2024-01-16T06:55:04.881Z,78446.13
2024-01-16T06:57:31.417Z,78448.13
2024-01-16T06:59:58.037Z,78444.13
2024-01-16T07:02:24.905Z,78450.13
2024-01-16T07:04:51.425Z,78454.13
2024-01-16T07:07:17.956Z,78444.13
2024-01-16T07:09:44.454Z,78424.13
2024-01-16T07:12:11.017Z,78416.13
2024-01-16T07:14:39.354Z,78402.13
2024-01-16T07:17:08.842Z,78396.13
2024-01-16T07:19:35.545Z,78398.13
2024-01-16T07:22:02.104Z,78402.13
2024-01-16T07:24:28.613Z,78398.13
2024-01-16T07:26:55.678Z,78376.16
2024-01-16T07:29:22.359Z,78384.16
2024-01-16T07:31:48.922Z,78382.16
2024-01-16T07:34:21.090Z,78382.16
2024-01-16T07:36:47.735Z,78372.16
2024-01-16T07:39:15.665Z,78360.16
2024-01-16T07:41:42.229Z,78362.16
2024-01-16T07:44:09.094Z,78362.16
2024-01-16T07:46:35.648Z,78354.16
2024-01-16T07:49:02.295Z,78368.16
2024-01-16T07:51:30.708Z,78376.16
2024-01-16T07:54:07.890Z,78370.16
2024-01-16T07:56:35.136Z,78364.16
2024-01-16T07:59:02.443Z,78358.16
2024-01-16T08:01:32.324Z,78358.16
2024-01-16T08:03:59.049Z,78348.16
2024-01-16T08:06:25.756Z,78338.16
2024-01-16T08:08:52.359Z,78338.16
2024-01-16T08:11:19.961Z,78316.16
2024-01-16T08:13:46.491Z,78332.16
2024-01-16T08:16:13.092Z,78334.16
2024-01-16T08:18:39.838Z,78336.16
2024-01-16T08:21:07.088Z,78344.16
2024-01-16T08:23:33.696Z,78330.16
2024-01-16T08:26:00.270Z,78316.16
2024-01-16T08:28:27.244Z,78306.16
2024-01-16T08:30:54.105Z,78322.16
2024-01-16T08:33:27.881Z,78300.19
2024-01-16T08:36:00.655Z,78314.16
2024-01-16T08:38:27.437Z,78306.16
2024-01-16T08:40:53.960Z,78300.19
2024-01-16T08:43:20.469Z,78282.19
2024-01-16T08:45:48.959Z,78280.19
2024-01-16T08:48:16.333Z,78276.19
2024-01-16T08:50:43.139Z,78268.19
2024-01-16T08:53:09.770Z,78254.19
2024-01-16T08:55:36.325Z,78242.19
2024-01-16T08:58:02.927Z,78256.19
2024-01-16T09:00:29.491Z,78244.19
2024-01-16T09:02:56.106Z,78250.19
2024-01-16T09:05:26.706Z,78282.19
2024-01-16T09:07:56.323Z,78274.19
2024-01-16T09:10:22.869Z,78262.19
2024-01-16T09:12:50.032Z,78272.19
2024-01-16T09:15:16.811Z,78272.19
2024-01-16T09:17:43.456Z,78290.19
2024-01-16T09:20:10.289Z,78280.19
2024-01-16T09:22:36.843Z,78278.19
2024-01-16T09:25:03.402Z,78272.19
2024-01-16T09:27:29.924Z,78274.19
2024-01-16T09:29:56.632Z,78274.19
2024-01-16T09:32:23.367Z,78276.19
2024-01-16T09:34:49.998Z,78276.19
2024-01-16T09:37:16.519Z,78262.19
2024-01-16T09:39:43.876Z,78262.19
2024-01-16T09:42:10.603Z,78268.19
2024-01-16T09:44:37.230Z,78270.19
2024-01-16T09:47:06.825Z,78266.19
2024-01-16T09:49:33.379Z,78280.19
2024-01-16T09:52:02.771Z,78276.19
2024-01-16T09:54:29.304Z,78250.19
2024-01-16T09:56:59.299Z,78218.19
2024-01-16T09:59:26.718Z,78200.22
2024-01-16T10:01:55.598Z,78174.22
2024-01-16T10:04:22.316Z,78162.22
2024-01-16T10:06:49.984Z,78174.22
2024-01-16T10:09:17.171Z,78150.22
2024-01-16T10:11:43.884Z,78134.22
2024-01-16T10:14:11.432Z,78146.22
2024-01-16T10:16:57.311Z,78148.22
2024-01-16T10:19:32.049Z,78140.22
2024-01-16T10:22:07.587Z,78124.22
2024-01-16T10:24:36.622Z,78140.22
2024-01-16T10:27:07.361Z,78122.22
2024-01-16T10:29:43.340Z,78138.22
2024-01-16T10:32:28.002Z,78100.25
2024-01-16T10:35:02.621Z,78100.25
2024-01-16T10:37:29.261Z,78104.25
2024-01-16T10:39:55.878Z,78120.22
2024-01-16T10:42:22.444Z,78134.22
2024-01-16T10:44:56.080Z,78158.22
2024-01-16T10:47:23.366Z,78154.22
2024-01-16T10:49:49.968Z,78172.22
2024-01-16T10:52:18.705Z,78160.22
2024-01-16T10:54:48.011Z,78156.22
2024-01-16T10:57:14.810Z,78158.22
2024-01-16T10:59:49.767Z,78138.22
2024-01-16T11:02:21.237Z,78124.22
2024-01-16T11:04:49.432Z,78142.22
2024-01-16T11:07:16.384Z,78124.22
2024-01-16T11:09:43.167Z,78118.25
2024-01-16T11:12:12.253Z,78110.25
2024-01-16T11:14:39.131Z,78096.25
2024-01-16T11:17:05.741Z,78082.25
2024-01-16T11:22:06.233Z,78096.25
2024-01-16T11:24:32.878Z,78106.25
2024-01-16T11:26:59.516Z,78114.25
2024-01-16T11:29:29.473Z,78156.22
2024-01-16T11:32:09.192Z,78154.22
2024-01-16T11:34:43.754Z,78126.22
2024-01-16T11:37:13.733Z,78130.22
2024-01-16T11:39:41.656Z,78124.22
2024-01-16T11:42:10.226Z,78126.22
2024-01-16T11:44:55.580Z,78114.25
2024-01-16T11:47:23.245Z,78126.22
2024-01-16T11:49:51.526Z,78118.25
2024-01-16T11:52:36.957Z,78146.22
2024-01-16T11:55:23.440Z,78106.25
2024-01-16T11:58:06.265Z,78094.25
2024-01-16T12:00:36.939Z,78096.25
2024-01-16T12:03:09.169Z,78086.25
2024-01-16T12:05:35.894Z,78072.25
2024-01-16T12:08:04.842Z,78062.25
2024-01-16T12:10:31.446Z,78074.25
2024-01-16T12:13:02.015Z,78072.25
2024-01-16T12:15:31.429Z,78080.25
2024-01-16T12:17:59.114Z,78092.25
2024-01-16T12:20:26.958Z,78056.25
2024-01-16T12:22:58.229Z,78040.28
2024-01-16T12:25:25.498Z,78034.28
2024-01-16T12:28:12.188Z,78032.28
2024-01-16T12:30:39.276Z,78044.25
2024-01-16T12:33:14.960Z,78026.28
2024-01-16T12:35:42.459Z,78022.28
2024-01-16T12:38:12.742Z,78022.28
2024-01-16T12:40:43.355Z,78004.28
2024-01-16T12:43:10.490Z,78022.28
2024-01-16T12:45:37.188Z,78004.28
2024-01-16T12:48:07.100Z,77996.28
2024-01-16T12:50:34.037Z,78022.28
2024-01-16T12:53:07.414Z,78048.25
2024-01-16T12:55:34.837Z,78048.25
2024-01-16T12:58:13.663Z,78064.25
2024-01-16T13:00:43.366Z,78078.25
2024-01-16T13:03:16.251Z,78080.25
2024-01-16T13:05:43.462Z,78084.25
2024-01-16T13:08:10.081Z,78094.25
2024-01-16T13:10:36.901Z,78094.25
2024-01-16T13:13:13.098Z,78086.25
2024-01-16T13:15:39.965Z,78074.25
2024-01-16T13:18:06.707Z,78096.25
2024-01-16T13:20:33.441Z,78064.25
2024-01-16T13:22:59.995Z,78064.25
2024-01-16T13:25:27.347Z,78058.25
2024-01-16T13:27:54.648Z,78050.25
2024-01-16T13:30:22.208Z,78044.25
2024-01-16T13:32:49.029Z,78054.25
2024-01-16T13:35:15.708Z,78076.25
2024-01-16T13:37:42.569Z,78056.25
2024-01-16T13:40:16.375Z,78064.25
2024-01-16T13:42:43.153Z,78074.25
2024-01-16T13:45:10.174Z,78074.25
2024-01-16T13:47:40.800Z,78058.25
2024-01-16T13:50:08.196Z,78036.28
2024-01-16T13:52:37.689Z,78030.28
2024-01-16T13:55:06.623Z,78034.28
2024-01-16T13:57:34.076Z,78028.28
2024-01-16T14:00:00.870Z,78056.25
2024-01-16T14:02:27.519Z,78034.28
2024-01-16T14:04:54.784Z,78042.28
2024-01-16T14:07:21.484Z,78042.28
2024-01-16T14:09:48.063Z,78046.25
2024-01-16T14:12:15.307Z,78030.28
2024-01-16T14:14:42.859Z,78038.28
2024-01-16T14:17:09.702Z,78038.28
2024-01-16T14:19:36.486Z,78038.28
2024-01-16T14:22:03.335Z,78042.28
2024-01-16T14:24:29.883Z,78046.25
2024-01-16T14:26:58.577Z,78068.25
2024-01-16T14:29:25.556Z,78040.28
2024-01-16T14:31:52.618Z,78062.25
2024-01-16T14:34:20.475Z,78062.25
2024-01-16T14:36:47.831Z,78058.25
2024-01-16T14:39:14.977Z,78050.25
2024-01-16T14:41:42.648Z,78068.25
2024-01-16T14:44:10.739Z,78082.25
2024-01-16T14:46:37.665Z,78108.25
2024-01-16T14:49:04.574Z,78096.25
2024-01-16T14:51:31.310Z,78112.25
2024-01-16T14:53:58.021Z,78108.25
2024-01-16T14:56:25.479Z,78118.25
2024-01-16T14:58:52.070Z,78128.22
2024-01-16T15:01:19.255Z,78130.22
2024-01-16T15:03:46.001Z,78134.22
2024-01-16T15:06:14.416Z,78124.22
2024-01-16T15:08:41.129Z,78140.22
2024-01-16T15:11:08.465Z,78140.22
2024-01-16T15:13:35.110Z,78132.22
2024-01-16T15:16:01.888Z,78150.22
2024-01-16T15:18:29.196Z,78158.22
2024-01-16T15:20:56.875Z,78158.22
2024-01-16T15:23:24.350Z,78158.22
2024-01-16T15:25:51.230Z,78176.22
2024-01-16T15:28:17.858Z,78170.22
2024-01-16T15:30:46.380Z,78168.22
2024-01-16T15:33:13.126Z,78148.22
2024-01-16T15:35:39.822Z,78162.22
2024-01-16T15:38:06.514Z,78154.22
2024-01-16T15:40:33.080Z,78166.22
2024-01-16T15:43:00.849Z,78166.22
2024-01-16T15:45:28.333Z,78166.22
2024-01-16T15:47:55.390Z,78162.22
2024-01-16T15:50:22.620Z,78160.22
2024-01-16T15:52:50.578Z,78158.22
2024-01-16T15:55:17.557Z,78178.22
2024-01-16T15:57:44.652Z,78180.22
2024-01-16T16:00:11.651Z,78180.22
2024-01-16T16:02:39.635Z,78176.22
2024-01-16T16:05:06.820Z,78178.22
2024-01-16T16:07:33.459Z,78186.22
2024-01-16T16:09:59.998Z,78180.22
2024-01-16T16:12:26.609Z,78184.22
2024-01-16T16:14:53.390Z,78202.22
2024-01-16T16:17:20.210Z,78182.22
2024-01-16T16:19:47.813Z,78188.22
2024-01-16T16:22:15.238Z,78188.22
2024-01-16T16:24:42.258Z,78204.22
2024-01-16T16:27:27.983Z,78198.22
2024-01-16T16:29:57.348Z,78204.22
2024-01-16T16:32:24.845Z,78208.19
2024-01-16T16:34:51.573Z,78212.19
2024-01-16T16:37:19.096Z,78214.19
2024-01-16T16:39:45.780Z,78212.19
2024-01-16T16:42:13.469Z,78194.22
2024-01-16T16:44:40.206Z,78208.19
2024-01-16T16:47:08.417Z,78212.19
2024-01-16T16:49:35.121Z,78218.19
2024-01-16T16:52:01.733Z,78222.19
2024-01-16T16:54:30.486Z,78220.19
2024-01-16T16:56:57.891Z,78238.19
2024-01-16T16:59:24.676Z,78250.19
2024-01-16T17:01:52.748Z,78268.19
2024-01-16T17:04:19.393Z,78272.19
2024-01-16T17:06:46.176Z,78276.19
2024-01-16T17:09:13.135Z,78274.19
2024-01-16T17:11:40.098Z,78284.19
2024-01-16T17:14:06.666Z,78286.19
2024-01-16T17:16:33.302Z,78270.19
2024-01-16T17:18:59.986Z,78264.19
2024-01-16T17:21:26.765Z,78242.19
2024-01-16T17:23:54.201Z,78242.19
2024-01-16T17:26:21.085Z,78244.19
2024-01-16T17:28:47.784Z,78236.19
2024-01-16T17:31:14.373Z,78232.19
2024-01-16T17:33:41.066Z,78228.19
2024-01-16T17:36:11.973Z,78234.19
2024-01-16T17:38:38.881Z,78226.19
2024-01-16T17:41:05.952Z,78234.19
2024-01-16T17:43:32.719Z,78230.19
2024-01-16T17:45:59.397Z,78242.19
2024-01-16T17:48:26.847Z,78266.19
2024-01-16T17:50:53.651Z,78270.19
2024-01-16T17:53:20.687Z,78274.19
2024-01-16T17:55:47.701Z,78294.19
2024-01-16T17:58:16.744Z,78300.19
2024-01-16T18:00:43.403Z,78306.16
2024-01-16T18:03:24.208Z,78300.19
2024-01-16T18:06:00.669Z,78314.16
2024-01-16T18:08:27.457Z,78314.16
2024-01-16T18:10:55.779Z,78312.16
2024-01-16T18:13:23.395Z,78314.16
2024-01-16T18:15:50.096Z,78322.16
2024-01-16T18:18:18.439Z,78312.16
2024-01-16T18:20:45.215Z,78328.16
2024-01-16T18:23:12.644Z,78330.16
2024-01-16T18:25:39.246Z,78320.16
2024-01-16T18:28:06.113Z,78332.16
2024-01-16T18:30:34.447Z,78346.16
2024-01-16T18:33:02.231Z,78338.16
2024-01-16T18:35:29.686Z,78340.16
2024-01-16T18:37:56.576Z,78338.16
2024-01-16T18:40:24.794Z,78338.16
2024-01-16T18:42:51.637Z,78338.16
2024-01-16T18:45:18.271Z,78340.16
2024-01-16T18:47:46.176Z,78340.16
2024-01-16T18:50:13.987Z,78336.16
2024-01-16T18:52:41.230Z,78338.16
2024-01-16T18:55:10.887Z,78336.16
2024-01-16T18:57:38.488Z,78332.16
2024-01-16T19:00:06.909Z,78338.16
2024-01-16T19:02:33.511Z,78338.16
2024-01-16T19:05:00.714Z,78334.16
2024-01-16T19:07:27.376Z,78328.16
2024-01-16T19:09:53.874Z,78318.16
2024-01-16T19:12:20.420Z,78320.16
2024-01-16T19:14:48.865Z,78320.16
2024-01-16T19:17:15.715Z,78326.16
2024-01-16T19:19:42.287Z,78332.16
2024-01-16T19:22:10.308Z,78346.16
2024-01-16T19:24:37.466Z,78352.16
2024-01-16T19:27:04.362Z,78352.16
2024-01-16T19:29:31.583Z,78358.16
2024-01-16T19:31:58.293Z,78356.16
2024-01-16T19:34:25.385Z,78356.16
2024-01-16T19:36:51.987Z,78358.16
2024-01-16T19:39:22.380Z,78346.16
2024-01-16T19:41:49.268Z,78342.16
2024-01-16T19:44:15.952Z,78348.16
2024-01-16T19:46:43.328Z,78352.16
2024-01-16T19:49:10.561Z,78340.16
2024-01-16T19:51:40.317Z,78348.16
2024-01-16T19:54:10.169Z,78348.16
2024-01-16T19:56:40.551Z,78346.16
2024-01-16T19:59:08.999Z,78352.16
2024-01-16T20:01:35.636Z,78360.16
2024-01-16T20:04:02.727Z,78352.16
2024-01-16T20:06:29.810Z,78356.16
2024-01-16T20:09:00.218Z,78358.16
2024-01-16T20:11:30.771Z,78356.16
2024-01-16T20:13:58.073Z,78354.16
2024-01-16T20:16:29.251Z,78366.16
2024-01-16T20:18:56.641Z,78366.16
2024-01-16T20:21:23.753Z,78358.16
2024-01-16T20:23:50.872Z,78352.16
2024-01-16T20:26:20.776Z,78342.16
2024-01-16T20:28:47.636Z,78352.16
2024-01-16T20:31:14.544Z,78346.16
2024-01-16T20:33:46.032Z,78346.16
2024-01-16T20:36:13.583Z,78348.16
2024-01-16T20:38:41.213Z,78348.16
2024-01-16T20:41:07.757Z,78346.16
2024-01-16T20:43:35.440Z,78342.16
2024-01-16T20:46:02.195Z,78352.16
2024-01-16T20:48:29.867Z,78352.16
2024-01-16T20:50:56.839Z,78350.16
2024-01-16T20:53:24.574Z,78348.16
2024-01-16T20:55:51.140Z,78338.16
2024-01-16T20:58:17.654Z,78342.16
2024-01-16T21:00:46.516Z,78348.16
2024-01-16T21:03:13.755Z,78346.16
2024-01-16T21:05:41.174Z,78350.16
2024-01-16T21:08:08.628Z,78358.16
2024-01-16T21:10:35.380Z,78352.16
2024-01-16T21:13:02.013Z,78344.16
2024-01-16T21:15:28.768Z,78350.16
2024-01-16T21:17:55.367Z,78348.16
2024-01-16T21:20:22.029Z,78362.16
2024-01-16T21:22:48.580Z,78362.16
2024-01-16T21:25:16.013Z,78364.16
2024-01-16T21:27:45.709Z,78362.16
2024-01-16T21:30:12.952Z,78358.16
2024-01-16T21:32:39.730Z,78358.16
2024-01-16T21:35:07.768Z,78344.16
2024-01-16T21:37:34.317Z,78344.16
2024-01-16T21:40:00.851Z,78336.16
2024-01-16T21:42:28.299Z,78334.16
2024-01-16T21:44:55.163Z,78334.16
2024-01-16T21:47:22.144Z,78330.16
2024-01-16T21:49:52.223Z,78322.16
2024-01-16T21:52:19.918Z,78328.16
2024-01-16T21:54:47.599Z,78330.16
2024-01-16T21:57:14.388Z,78310.16
2024-01-16T21:59:40.919Z,78320.16
2024-01-16T22:02:08.361Z,78306.16
2024-01-16T22:04:34.908Z,78314.16
2024-01-16T22:07:02.028Z,78326.16
2024-01-16T22:09:30.556Z,78314.16
2024-01-16T22:11:57.068Z,78318.16
2024-01-16T22:14:23.635Z,78320.16
2024-01-16T22:16:50.181Z,78332.16
2024-01-16T22:19:16.804Z,78332.16
2024-01-16T22:21:43.407Z,78342.16
2024-01-16T22:24:10.048Z,78342.16
2024-01-16T22:26:36.677Z,78360.16
2024-01-16T22:29:03.268Z,78370.16
2024-01-16T22:31:29.879Z,78382.16
2024-01-16T22:33:56.688Z,78380.16
2024-01-16T22:36:23.733Z,78388.16
2024-01-16T22:38:50.277Z,78386.16
2024-01-16T22:41:17.317Z,78394.13
2024-01-16T22:43:46.900Z,78402.13
2024-01-16T22:46:13.588Z,78402.13
2024-01-16T22:48:41.530Z,78404.13
2024-01-16T22:51:08.403Z,78416.13
2024-01-16T22:53:35.018Z,78410.13
2024-01-16T22:56:01.589Z,78414.13
2024-01-16T22:58:28.124Z,78404.13
2024-01-16T23:00:55.184Z,78404.13
2024-01-16T23:03:22.050Z,78414.13
2024-01-16T23:05:48.744Z,78402.13
2024-01-16T23:08:15.850Z,78400.13
2024-01-16T23:10:42.680Z,78412.13
2024-01-16T23:13:09.179Z,78416.13
2024-01-16T23:15:35.675Z,78412.13
2024-01-16T23:18:02.378Z,78414.13
2024-01-16T23:20:29.158Z,78394.13
2024-01-16T23:22:56.643Z,78410.13
2024-01-16T23:25:23.251Z,78402.13
2024-01-16T23:27:53.706Z,78398.13
2024-01-16T23:30:20.349Z,78394.13
2024-01-16T23:32:47.135Z,78394.13
2024-01-16T23:35:13.829Z,78398.13
2024-01-16T23:37:42.540Z,78400.13
2024-01-16T23:40:10.730Z,78400.13
2024-01-16T23:42:39.694Z,78402.13
2024-01-16T23:45:14.420Z,78396.13
2024-01-16T23:47:50.268Z,78392.16
2024-01-16T23:50:19.845Z,78400.13
2024-01-16T23:52:46.630Z,78406.13
2024-01-16T23:55:13.179Z,78404.13
2024-01-16T23:57:39.674Z,78400.13
